Time;durP1;ratioP1;P1;durP2;ratioP2;P2;SDS_P1;SDS_P2;PMS_P1;PMS_P2;Temp;Humidity;BMP_temperature;BMP_pressure;BME280_temperature;BME280_humidity;BME280_pressure;Samples;Min_cycle;Max_cycle;Signal;HPM_P1;HPM_P2
2022/03/31 00:00:19;;;;;;;37.80;23.50;;;;;;;8.11;100.00;97573.84;4992069;28;20278;-79
2022/03/31 00:02:46;;;;;;;34.30;24.23;;;;;;;7.99;100.00;97577.53;4991889;28;20658;-79
2022/03/31 00:05:14;;;;;;;38.63;24.40;;;;;;;7.92;100.00;97577.16;4991973;28;20192;-80
2022/03/31 00:07:51;;;;;;;35.35;22.05;;;;;;;7.88;100.00;97580.19;4991881;28;20196;-80
2022/03/31 00:10:22;;;;;;;33.45;22.90;;;;;;;7.70;100.00;97582.50;4992089;28;20210;-80
2022/03/31 00:12:49;;;;;;;38.80;25.27;;;;;;;7.64;100.00;97578.50;4992243;28;20222;-80
2022/03/31 00:15:16;;;;;;;39.13;22.92;;;;;;;7.59;100.00;97583.34;4991918;28;20203;-80
2022/03/31 00:17:42;;;;;;;39.30;25.08;;;;;;;7.49;100.00;97574.34;4991969;28;20207;-80
2022/03/31 00:20:11;;;;;;;41.45;27.33;;;;;;;7.56;100.00;97572.88;4992351;28;20188;-80
2022/03/31 00:22:39;;;;;;;38.78;25.83;;;;;;;7.50;100.00;97568.84;4992117;28;20250;-80
2022/03/31 00:25:07;;;;;;;39.85;25.83;;;;;;;7.51;100.00;97567.88;4991652;28;20191;-80
2022/03/31 00:27:34;;;;;;;37.83;24.25;;;;;;;7.49;100.00;97568.97;4992003;28;20336;-80
2022/03/31 00:30:01;;;;;;;41.63;25.10;;;;;;;7.38;100.00;97571.63;4991922;28;20188;-80
2022/03/31 00:32:27;;;;;;;36.22;23.63;;;;;;;7.42;100.00;97568.59;4991526;28;20317;-80
2022/03/31 00:34:54;;;;;;;40.08;26.00;;;;;;;7.46;100.00;97566.50;4991844;28;20642;-80
2022/03/31 00:37:21;;;;;;;43.45;26.60;;;;;;;7.45;100.00;97567.50;4991663;28;20188;-80
2022/03/31 00:39:49;;;;;;;42.63;26.63;;;;;;;7.51;100.00;97567.03;4991797;28;20581;-80
2022/03/31 00:42:16;;;;;;;44.50;27.35;;;;;;;7.52;100.00;97571.41;4991883;28;20192;-80
2022/03/31 00:44:43;;;;;;;45.85;26.38;;;;;;;7.50;100.00;97571.50;4991734;28;20618;-79
2022/03/31 00:47:10;;;;;;;37.97;24.27;;;;;;;7.51;100.00;97562.53;4991838;28;20222;-80
2022/03/31 00:49:36;;;;;;;40.50;25.90;;;;;;;7.28;100.00;97560.75;4991770;28;20596;-79
2022/03/31 00:52:04;;;;;;;43.15;27.92;;;;;;;7.15;100.00;97552.84;4991391;28;20194;-81
2022/03/31 00:54:31;;;;;;;38.63;25.95;;;;;;;7.25;100.00;97555.66;4993508;28;20203;-80
2022/03/31 00:57:02;;;;;;;42.97;26.92;;;;;;;7.25;100.00;97551.16;4994923;28;20278;-80
2022/03/31 00:59:29;;;;;;;41.03;27.00;;;;;;;7.07;100.00;97556.09;4994996;28;20199;-80
2022/03/31 01:01:59;;;;;;;50.58;28.52;;;;;;;7.00;100.00;97551.34;4994770;28;20234;-80
2022/03/31 01:04:27;;;;;;;41.63;26.08;;;;;;;7.05;100.00;97550.00;4994247;28;20210;-80
2022/03/31 01:06:54;;;;;;;42.38;27.95;;;;;;;7.09;100.00;97539.94;4995095;28;20654;-80
2022/03/31 01:09:20;;;;;;;41.63;26.83;;;;;;;7.07;100.00;97547.22;4994800;28;20278;-80
2022/03/31 01:11:47;;;;;;;43.70;28.17;;;;;;;6.94;100.00;97541.94;4994638;28;20207;-80
2022/03/31 01:14:16;;;;;;;44.10;28.63;;;;;;;7.01;100.00;97539.66;4994558;28;20208;-80
2022/03/31 01:16:43;;;;;;;45.40;28.88;;;;;;;7.05;100.00;97533.09;4994546;28;20195;-80
2022/03/31 01:19:12;;;;;;;45.95;29.15;;;;;;;7.01;100.00;97528.94;4994472;28;20206;-81
2022/03/31 01:21:40;;;;;;;53.50;29.48;;;;;;;7.15;100.00;97534.13;4994853;28;20660;-80
2022/03/31 01:24:10;;;;;;;48.15;27.58;;;;;;;7.15;100.00;97526.09;4994791;28;20206;-80
2022/03/31 01:26:37;;;;;;;45.83;28.90;;;;;;;7.12;100.00;97523.63;4994750;28;20213;-80
2022/03/31 01:29:05;;;;;;;53.00;29.20;;;;;;;7.26;100.00;97519.91;4995052;28;20191;-80
2022/03/31 01:31:32;;;;;;;46.25;28.20;;;;;;;7.22;100.00;97527.31;4994990;28;20654;-80
2022/03/31 01:33:59;;;;;;;44.58;28.60;;;;;;;7.44;100.00;97523.81;4994853;28;20214;-80
2022/03/31 01:36:25;;;;;;;44.97;26.38;;;;;;;7.70;100.00;97521.75;4994686;28;20199;-81
2022/03/31 01:38:52;;;;;;;46.78;28.35;;;;;;;7.82;100.00;97517.22;4994856;28;20282;-80
2022/03/31 01:41:20;;;;;;;46.42;27.98;;;;;;;7.90;100.00;97512.13;4994317;28;20211;-80
2022/03/31 01:43:47;;;;;;;44.28;28.05;;;;;;;7.93;100.00;97509.19;4994658;28;20210;-80
2022/03/31 01:46:14;;;;;;;49.42;28.40;;;;;;;8.08;100.00;97506.25;4994366;28;20192;-81
2022/03/31 01:48:40;;;;;;;43.42;28.70;;;;;;;8.12;100.00;97505.03;4994622;28;20223;-81
2022/03/31 01:51:07;;;;;;;43.05;28.35;;;;;;;8.21;100.00;97504.28;4993987;28;20189;-81
2022/03/31 01:53:35;;;;;;;46.75;27.27;;;;;;;8.33;100.00;97497.06;4993817;28;20228;-81
2022/03/31 01:56:01;;;;;;;46.03;29.80;;;;;;;8.32;100.00;97489.97;4994254;28;20193;-81
2022/03/31 01:58:29;;;;;;;43.17;28.17;;;;;;;7.99;100.00;97498.97;4994317;28;20204;-80
2022/03/31 02:00:57;;;;;;;40.85;27.55;;;;;;;7.79;100.00;97496.06;4994094;28;20537;-80
2022/03/31 02:03:23;;;;;;;47.17;29.25;;;;;;;7.66;100.00;97489.97;4993946;28;20198;-81
2022/03/31 02:05:50;;;;;;;45.25;29.25;;;;;;;7.51;100.00;97481.34;4993010;28;20304;-80
2022/03/31 02:08:17;;;;;;;41.22;26.83;;;;;;;7.82;100.00;97479.72;4994164;28;20222;-79
2022/03/31 02:10:44;;;;;;;45.33;29.23;;;;;;;8.10;100.00;97472.16;4994006;28;20650;-80
2022/03/31 02:13:11;;;;;;;42.05;27.20;;;;;;;8.06;100.00;97466.16;4993814;28;20208;-82
2022/03/31 02:15:38;;;;;;;46.50;27.88;;;;;;;7.82;100.00;97463.66;4993854;28;20203;-80
2022/03/31 02:18:05;;;;;;;43.47;28.75;;;;;;;7.75;100.00;97461.59;4994175;28;20648;-80
2022/03/31 02:20:32;;;;;;;44.35;29.63;;;;;;;7.56;100.00;97464.91;4993775;28;20187;-80
2022/03/31 02:23:00;;;;;;;47.85;29.58;;;;;;;7.57;100.00;97459.41;4993690;28;20199;-80
2022/03/31 02:25:26;;;;;;;45.00;27.98;;;;;;;7.61;100.00;97458.19;4993751;28;20202;-79
2022/03/31 02:27:54;;;;;;;44.45;29.20;;;;;;;7.56;100.00;97451.53;4994076;28;20183;-81
2022/03/31 02:30:21;;;;;;;42.55;28.65;;;;;;;7.58;100.00;97453.09;4993700;28;20688;-79
2022/03/31 02:32:50;;;;;;;45.33;28.90;;;;;;;7.44;100.00;97447.97;4993327;28;20201;-79
2022/03/31 02:35:17;;;;;;;49.08;29.98;;;;;;;7.37;100.00;97446.75;4993343;28;20187;-79
2022/03/31 02:37:44;;;;;;;52.55;31.15;;;;;;;7.35;100.00;97449.59;4993340;28;20207;-80
2022/03/31 02:40:11;;;;;;;45.63;28.83;;;;;;;7.24;100.00;97441.56;4993453;28;20295;-82
2022/03/31 02:42:37;;;;;;;47.67;29.77;;;;;;;7.13;100.00;97438.88;4992972;28;20202;-80
2022/03/31 02:45:05;;;;;;;50.83;31.70;;;;;;;7.23;100.00;97438.00;4993221;28;20207;-79
2022/03/31 02:47:34;;;;;;;48.97;28.83;;;;;;;7.26;100.00;97435.09;4993198;28;20211;-81
2022/03/31 02:50:02;;;;;;;46.95;29.65;;;;;;;7.40;100.00;97425.13;4992858;28;20204;-79
2022/03/31 02:55:24;;;;;;;45.17;28.00;;;;;;;7.38;100.00;97425.22;4993037;28;20190;-81
2022/03/31 02:55:28;;;;;;;46.20;29.00;;;;;;;7.27;100.00;97418.06;4992861;28;20200;-79
2022/03/31 02:57:56;;;;;;;48.58;30.33;;;;;;;7.23;100.00;97419.25;4992994;28;20274;-80
2022/03/31 03:00:23;;;;;;;54.10;31.85;;;;;;;7.22;100.00;97411.38;4993009;28;20622;-80
2022/03/31 03:02:50;;;;;;;51.67;32.67;;;;;;;7.24;100.00;97407.59;4992452;28;20242;-81
2022/03/31 03:05:19;;;;;;;52.95;33.05;;;;;;;7.25;100.00;97408.44;4992835;28;20198;-80
2022/03/31 03:07:45;;;;;;;51.78;31.38;;;;;;;7.40;100.00;97401.03;4992823;28;20627;-80
2022/03/31 03:10:13;;;;;;;48.97;28.63;;;;;;;7.44;100.00;97394.44;4992568;28;20207;-80
2022/03/31 03:12:41;;;;;;;49.63;28.30;;;;;;;7.29;100.00;97397.38;4992780;28;20191;-80
2022/03/31 03:15:08;;;;;;;46.13;28.23;;;;;;;7.40;100.00;97396.53;4993101;28;20207;-81
2022/03/31 03:17:35;;;;;;;46.72;27.30;;;;;;;7.46;100.00;97393.34;4993403;28;20218;-80
2022/03/31 03:20:02;;;;;;;44.72;28.50;;;;;;;7.38;100.00;97397.63;4992784;28;20187;-80
2022/03/31 03:22:31;;;;;;;47.25;29.27;;;;;;;7.43;100.00;97382.03;4992856;28;20708;-80
2022/03/31 03:24:59;;;;;;;41.60;26.35;;;;;;;7.47;100.00;97394.19;4995342;28;20251;-76
2022/03/31 03:27:25;;;;;;;45.70;27.92;;;;;;;7.59;100.00;97379.81;4993079;28;20326;-76
2022/03/31 03:29:52;;;;;;;44.88;27.70;;;;;;;7.71;100.00;97377.94;4993212;28;20604;-76
2022/03/31 03:32:19;;;;;;;40.13;25.70;;;;;;;7.74;100.00;97383.06;4992998;28;20194;-76
2022/03/31 03:34:46;;;;;;;45.85;27.38;;;;;;;7.89;100.00;97378.28;4992521;28;20219;-77
2022/03/31 03:37:13;;;;;;;40.13;26.65;;;;;;;7.90;100.00;97375.47;4993048;28;20211;-76
2022/03/31 03:39:41;;;;;;;43.53;26.48;;;;;;;7.92;100.00;97376.19;4992795;28;20191;-76
2022/03/31 03:42:08;;;;;;;41.25;25.77;;;;;;;7.77;100.00;97373.94;4992444;28;20215;-76
2022/03/31 03:44:35;;;;;;;42.38;28.20;;;;;;;7.78;100.00;97368.47;4992704;28;20187;-77
2022/03/31 03:47:02;;;;;;;38.88;25.58;;;;;;;7.89;100.00;97367.56;4992742;28;20257;-79
2022/03/31 03:49:28;;;;;;;39.80;26.23;;;;;;;8.07;100.00;97365.16;4992741;28;20188;-77
2022/03/31 03:51:55;;;;;;;41.70;25.85;;;;;;;8.13;100.00;97368.19;4992376;28;20330;-75
2022/03/31 03:54:22;;;;;;;41.40;26.83;;;;;;;8.04;100.00;97368.13;4992295;28;20661;-76
2022/03/31 03:56:50;;;;;;;39.72;25.98;;;;;;;7.84;100.00;97365.25;4992630;28;20623;-75
2022/03/31 03:59:16;;;;;;;38.53;26.42;;;;;;;7.89;100.00;97370.22;4992570;28;20207;-76
2022/03/31 04:01:43;;;;;;;40.33;26.50;;;;;;;7.96;100.00;97374.13;4992533;28;20245;-75
2022/03/31 04:04:10;;;;;;;42.60;26.00;;;;;;;7.89;100.00;97378.28;4992352;28;20187;-76
2022/03/31 04:06:37;;;;;;;43.15;25.95;;;;;;;7.93;100.00;97369.00;4992601;28;20207;-75
2022/03/31 04:09:03;;;;;;;43.83;26.10;;;;;;;7.57;100.00;97367.53;4992451;28;20195;-75
2022/03/31 04:11:31;;;;;;;38.85;25.10;;;;;;;7.47;100.00;97367.44;4992507;28;20717;-75
2022/03/31 04:13:59;;;;;;;44.83;27.40;;;;;;;7.43;100.00;97376.69;4991899;28;20234;-76
2022/03/31 04:16:25;;;;;;;43.80;26.05;;;;;;;7.44;100.00;97373.88;4992161;28;20191;-76
2022/03/31 04:18:52;;;;;;;43.65;27.88;;;;;;;7.36;100.00;97373.63;4992444;28;20575;-76
2022/03/31 04:21:19;;;;;;;39.50;27.70;;;;;;;7.34;100.00;97378.25;4992298;28;20214;-76
2022/03/31 04:23:45;;;;;;;43.63;27.05;;;;;;;7.25;100.00;97374.50;4992453;28;20202;-76
2022/03/31 04:26:12;;;;;;;41.45;27.52;;;;;;;7.19;100.00;97369.66;4992138;28;20203;-75
2022/03/31 04:28:38;;;;;;;48.33;28.45;;;;;;;7.13;100.00;97367.47;4993063;28;20628;-76
2022/03/31 04:31:06;;;;;;;45.00;27.73;;;;;;;7.14;100.00;97371.81;4996217;28;20225;-77
2022/03/31 04:33:33;;;;;;;42.65;26.67;;;;;;;7.19;100.00;97372.34;4996142;28;20606;-77
2022/03/31 04:35:59;;;;;;;47.50;28.85;;;;;;;7.38;100.00;97369.03;4996103;28;20191;-75
2022/03/31 04:38:28;;;;;;;40.83;28.90;;;;;;;7.28;100.00;97371.59;4995675;28;20184;-77
2022/03/31 04:40:55;;;;;;;44.28;27.40;;;;;;;7.19;100.00;97369.66;4995833;28;20662;-77
2022/03/31 04:43:22;;;;;;;43.55;26.35;;;;;;;7.34;100.00;97361.34;4995527;28;20198;-75
2022/03/31 04:45:48;;;;;;;41.53;25.98;;;;;;;7.13;100.00;97361.25;4996073;28;20642;-77
2022/03/31 04:48:16;;;;;;;45.47;26.33;;;;;;;7.18;100.00;97365.25;4995506;28;20279;-76
2022/03/31 04:50:43;;;;;;;46.03;27.95;;;;;;;7.27;100.00;97363.69;4995575;28;20219;-76
2022/03/31 04:53:11;;;;;;;43.50;28.00;;;;;;;7.17;100.00;97360.91;4996394;28;20210;-76
2022/03/31 04:55:38;;;;;;;51.55;28.95;;;;;;;7.27;100.00;97364.53;4995524;28;20736;-76
2022/03/31 04:58:05;;;;;;;44.53;26.83;;;;;;;7.17;100.00;97368.91;4995390;28;20187;-76
2022/03/31 05:00:32;;;;;;;45.38;27.55;;;;;;;7.39;100.00;97364.50;4995296;28;20203;-75
2022/03/31 05:02:59;;;;;;;44.25;28.75;;;;;;;7.52;100.00;97362.53;4995021;28;20638;-76
2022/03/31 05:05:27;;;;;;;43.00;26.60;;;;;;;7.38;100.00;97357.47;4995004;28;20207;-76
2022/03/31 05:07:54;;;;;;;45.97;28.33;;;;;;;7.22;100.00;97369.41;4994953;28;20211;-76
2022/03/31 05:10:21;;;;;;;47.22;27.90;;;;;;;7.25;100.00;97366.47;4995149;28;20274;-76
2022/03/31 05:12:48;;;;;;;41.90;26.02;;;;;;;7.42;100.00;97365.13;4995448;28;20199;-75
2022/03/31 05:15:15;;;;;;;46.75;29.30;;;;;;;7.43;100.00;97361.47;4996092;28;20219;-75
2022/03/31 05:17:41;;;;;;;42.10;28.02;;;;;;;7.54;100.00;97352.56;4994706;28;20179;-76
2022/03/31 05:20:10;;;;;;;43.22;28.25;;;;;;;7.49;100.00;97346.75;4994897;28;20225;-76
2022/03/31 05:22:39;;;;;;;47.25;28.15;;;;;;;7.61;100.00;97347.56;4995185;28;20533;-76
2022/03/31 05:25:10;;;;;;;44.58;27.98;;;;;;;7.55;100.00;97354.25;4994489;28;20276;-77
2022/03/31 05:27:43;;;;;;;40.70;26.35;;;;;;;7.61;100.00;97347.56;4994705;28;20180;-76
2022/03/31 05:30:12;;;;;;;48.60;27.20;;;;;;;7.35;100.00;97355.91;4993872;28;20187;-78
2022/03/31 05:32:51;;;;;;;43.75;29.00;;;;;;;7.47;100.00;97348.69;4987119;28;20194;-77
2022/03/31 05:35:18;;;;;;;45.42;27.98;;;;;;;7.57;100.00;97352.31;4975682;28;20670;-76
2022/03/31 05:37:46;;;;;;;46.97;29.85;;;;;;;7.38;100.00;97357.47;4995050;28;20207;-76
2022/03/31 05:40:14;;;;;;;48.53;28.40;;;;;;;7.58;100.00;97348.66;4994475;28;20221;-75
2022/03/31 05:42:41;;;;;;;47.40;29.35;;;;;;;7.61;100.00;97352.91;4994878;28;20198;-76
2022/03/31 05:45:10;;;;;;;43.60;27.40;;;;;;;7.46;100.00;97355.88;4994735;28;20202;-75
2022/03/31 05:47:37;;;;;;;40.90;26.88;;;;;;;7.45;100.00;97364.88;4994675;28;20215;-76
2022/03/31 05:50:06;;;;;;;42.30;27.85;;;;;;;7.65;100.00;97359.72;4994446;28;20241;-75
2022/03/31 05:55:24;;;;;;;47.65;28.98;;;;;;;7.56;100.00;97363.16;4994366;28;20331;-75
2022/03/31 05:57:51;;;;;;;51.03;29.92;;;;;;;7.71;100.00;97357.41;4995048;28;20619;-76
2022/03/31 06:00:19;;;;;;;45.65;28.90;;;;;;;7.91;100.00;97357.56;4994953;28;20561;-75
2022/03/31 06:02:47;;;;;;;50.40;31.70;;;;;;;7.55;100.00;97361.44;4995821;28;20234;-76
2022/03/31 06:05:14;;;;;;;51.42;31.77;;;;;;;7.62;100.00;97365.31;4995490;28;20601;-76
2022/03/31 06:07:41;;;;;;;48.05;30.08;;;;;;;7.31;100.00;97363.31;4994682;28;20276;-75
2022/03/31 06:10:08;;;;;;;44.72;29.35;;;;;;;7.57;100.00;97356.81;4994983;28;20192;-76
2022/03/31 06:12:37;;;;;;;47.05;29.38;;;;;;;7.52;100.00;97357.19;4996861;28;20357;-75
2022/03/31 06:15:06;;;;;;;47.42;30.25;;;;;;;7.38;100.00;97366.34;4994845;28;20258;-75
2022/03/31 06:17:33;;;;;;;47.90;30.23;;;;;;;7.37;100.00;97361.09;4994921;28;20192;-76
2022/03/31 06:19:59;;;;;;;48.30;31.23;;;;;;;7.41;100.00;97351.84;4995054;28;20188;-75
2022/03/31 06:22:26;;;;;;;47.70;30.20;;;;;;;7.67;100.00;97360.47;4995869;28;20210;-76
2022/03/31 06:24:52;;;;;;;48.60;30.35;;;;;;;7.78;100.00;97355.06;4995303;28;20639;-77
2022/03/31 06:27:19;;;;;;;50.45;30.08;;;;;;;7.98;100.00;97356.06;4996050;28;20203;-75
2022/03/31 06:29:48;;;;;;;48.30;30.17;;;;;;;8.04;100.00;97358.25;4995322;28;20201;-75
2022/03/31 06:32:15;;;;;;;47.38;29.65;;;;;;;8.25;100.00;97354.75;4994263;28;20575;-76
2022/03/31 06:34:42;;;;;;;51.53;32.90;;;;;;;8.20;100.00;97355.13;4994527;28;20207;-77
2022/03/31 06:37:09;;;;;;;42.35;28.48;;;;;;;8.03;100.00;97364.59;4994383;28;20204;-77
2022/03/31 06:39:35;;;;;;;43.63;27.98;;;;;;;8.16;100.00;97351.00;4996297;28;20208;-75
2022/03/31 06:42:04;;;;;;;46.85;30.40;;;;;;;8.39;100.00;97354.44;4995219;28;20629;-77
2022/03/31 06:44:30;;;;;;;46.00;28.10;;;;;;;8.51;100.00;97352.56;4994166;28;20188;-75
2022/03/31 06:46:58;;;;;;;45.35;27.05;;;;;;;7.98;100.00;97356.06;4994848;28;20550;-76
2022/03/31 06:49:25;;;;;;;45.45;29.40;;;;;;;8.09;100.00;97352.50;4994961;28;20203;-77
2022/03/31 06:51:52;;;;;;;43.03;28.35;;;;;;;8.17;100.00;97355.41;4988259;28;20620;-75
2022/03/31 06:54:19;;;;;;;44.85;28.90;;;;;;;7.83;100.00;97352.00;4985980;28;20232;-75
2022/03/31 06:56:57;;;;;;;45.10;29.52;;;;;;;7.92;100.00;97361.97;4994551;28;20697;-76
2022/03/31 06:59:24;;;;;;;46.22;29.20;;;;;;;7.85;100.00;97355.41;4993741;28;20277;-76
2022/03/31 07:01:51;;;;;;;41.80;28.00;;;;;;;8.07;100.00;97352.66;4993801;28;20291;-76
2022/03/31 07:04:19;;;;;;;48.45;29.45;;;;;;;8.17;100.00;97349.19;4994053;28;20191;-76
2022/03/31 07:06:45;;;;;;;47.65;30.05;;;;;;;8.27;100.00;97350.09;4994030;28;20215;-76
2022/03/31 07:09:12;;;;;;;46.03;30.45;;;;;;;8.20;100.00;97351.59;4993889;28;20200;-75
2022/03/31 07:11:39;;;;;;;45.22;28.60;;;;;;;7.89;100.00;97349.66;4979774;28;20201;-75
2022/03/31 07:14:06;;;;;;;45.20;28.60;;;;;;;8.02;100.00;97352.16;4974111;28;20188;-75
2022/03/31 07:16:32;;;;;;;45.40;28.77;;;;;;;8.20;100.00;97357.81;4982529;28;20654;-77
2022/03/31 07:19:01;;;;;;;43.65;28.30;;;;;;;8.09;100.00;97363.22;4993469;28;20189;-76
2022/03/31 07:21:29;;;;;;;51.35;28.92;;;;;;;8.11;100.00;97361.25;4993758;28;20242;-76
2022/03/31 07:23:55;;;;;;;47.78;28.80;;;;;;;8.29;100.00;97374.94;4993491;28;20611;-76
2022/03/31 07:26:23;;;;;;;46.97;29.15;;;;;;;8.22;100.00;97365.72;4993399;28;20201;-76
2022/03/31 07:28:50;;;;;;;41.63;27.95;;;;;;;8.20;100.00;97365.00;4998178;28;20213;-77
2022/03/31 07:31:17;;;;;;;42.38;27.85;;;;;;;8.28;100.00;97367.91;4993265;28;20188;-75
2022/03/31 07:33:43;;;;;;;45.50;28.58;;;;;;;8.11;100.00;97367.47;4992573;28;20211;-76
2022/03/31 07:36:12;;;;;;;41.88;27.27;;;;;;;7.89;100.00;97368.44;4993252;28;20212;-76
2022/03/31 07:38:40;;;;;;;44.22;29.83;;;;;;;7.91;100.00;97361.13;4993039;28;20289;-76
2022/03/31 07:41:07;;;;;;;46.88;29.70;;;;;;;8.11;100.00;97362.09;4993103;28;20296;-76
2022/03/31 07:43:34;;;;;;;43.42;29.50;;;;;;;8.30;100.00;97371.31;4993349;28;20274;-76
2022/03/31 07:46:01;;;;;;;47.22;29.90;;;;;;;8.19;100.00;97364.16;4993684;28;20195;-81
2022/03/31 07:48:28;;;;;;;44.40;29.33;;;;;;;8.31;100.00;97368.47;4991871;28;20561;-82
2022/03/31 07:50:56;;;;;;;45.95;28.33;;;;;;;8.21;100.00;97358.66;4991678;28;20276;-79
2022/03/31 07:53:23;;;;;;;44.53;29.35;;;;;;;8.30;100.00;97356.06;4991812;28;20228;-82
2022/03/31 07:55:52;;;;;;;47.60;29.58;;;;;;;8.40;100.00;97361.53;4991834;28;20229;-81
2022/03/31 07:58:19;;;;;;;40.13;27.23;;;;;;;8.58;100.00;97369.84;4991656;28;20694;-82
2022/03/31 08:00:50;;;;;;;42.47;27.10;;;;;;;8.43;100.00;97363.09;4990269;28;20984;-81
2022/03/31 08:03:18;;;;;;;40.25;26.17;;;;;;;8.13;100.00;97364.66;4993601;28;20189;-82
2022/03/31 08:05:44;;;;;;;43.13;28.45;;;;;;;8.38;100.00;97363.44;4996158;28;20204;-80
2022/03/31 08:08:11;;;;;;;39.47;26.50;;;;;;;8.26;100.00;97353.78;4995510;28;20278;-81
2022/03/31 08:10:38;;;;;;;39.85;25.95;;;;;;;8.32;100.00;97354.13;4995857;28;20200;-81
2022/03/31 08:13:08;;;;;;;38.83;24.60;;;;;;;8.62;100.00;97357.03;4997298;28;20190;-82
2022/03/31 08:15:35;;;;;;;42.20;26.77;;;;;;;8.70;100.00;97355.34;4996994;28;20258;-81
2022/03/31 08:18:02;;;;;;;42.25;26.65;;;;;;;8.75;100.00;97360.31;4995307;28;20191;-80
2022/03/31 08:20:29;;;;;;;42.70;27.63;;;;;;;8.73;100.00;97362.31;4995281;28;20650;-82
2022/03/31 08:22:56;;;;;;;38.40;26.92;;;;;;;8.57;100.00;97357.44;4995348;28;20307;-83
2022/03/31 08:25:22;;;;;;;43.78;27.63;;;;;;;8.45;100.00;97361.97;4995231;28;20563;-82
2022/03/31 08:27:49;;;;;;;39.97;26.27;;;;;;;8.49;100.00;97366.09;4994768;28;20204;-83
2022/03/31 08:30:20;;;;;;;40.72;26.27;;;;;;;8.60;100.00;97361.66;4988447;28;20235;-84
2022/03/31 08:32:46;;;;;;;36.25;25.13;;;;;;;8.49;100.00;97350.00;4975642;28;20282;-83
2022/03/31 08:35:14;;;;;;;44.35;28.33;;;;;;;8.42;100.00;97351.53;4994889;28;20219;-83
2022/03/31 08:37:41;;;;;;;43.75;27.63;;;;;;;8.52;100.00;97355.13;4995167;28;20189;-83
2022/03/31 08:40:11;;;;;;;38.50;26.00;;;;;;;8.60;100.00;97357.16;4995226;28;20630;-83
2022/03/31 08:42:38;;;;;;;40.08;24.80;;;;;;;8.75;100.00;97358.53;4994669;28;20240;-82
2022/03/31 08:45:08;;;;;;;44.60;26.80;;;;;;;8.96;100.00;97352.28;4985554;28;20199;-82
2022/03/31 08:47:36;;;;;;;44.60;29.15;;;;;;;9.21;100.00;97359.00;4995315;28;20214;-82
2022/03/31 08:50:02;;;;;;;40.55;26.52;;;;;;;9.55;100.00;97353.34;4994738;28;20198;-81
2022/03/31 08:52:29;;;;;;;37.15;25.95;;;;;;;9.68;100.00;97350.38;4995156;28;20227;-82
2022/03/31 08:54:55;;;;;;;37.38;23.92;;;;;;;9.70;100.00;97354.66;4994874;28;20503;-82
2022/03/31 08:57:24;;;;;;;33.95;24.70;;;;;;;9.84;100.00;97348.03;4994467;28;20195;-83
2022/03/31 08:59:51;;;;;;;37.47;24.75;;;;;;;10.01;100.00;97349.16;4994706;28;20200;-82
2022/03/31 09:02:26;;;;;;;40.33;26.27;;;;;;;9.73;100.00;97351.66;4994186;28;20238;-82
2022/03/31 09:05:05;;;;;;;37.78;24.58;;;;;;;9.87;100.00;97350.41;4994263;28;20221;-82
2022/03/31 09:07:31;;;;;;;39.10;27.33;;;;;;;9.50;100.00;97350.22;4993981;28;20296;-82
2022/03/31 09:09:58;;;;;;;38.05;24.52;;;;;;;9.18;100.00;97349.41;4991784;28;20280;-81
2022/03/31 09:12:26;;;;;;;37.05;25.45;;;;;;;9.29;100.00;97343.06;4994119;28;20186;-82
2022/03/31 09:14:54;;;;;;;36.72;26.13;;;;;;;9.54;100.00;97351.63;4993682;28;20207;-82
2022/03/31 09:17:21;;;;;;;41.92;26.80;;;;;;;9.50;100.00;97350.22;4994679;28;20186;-82
2022/03/31 09:19:48;;;;;;;40.63;25.33;;;;;;;9.49;100.00;97353.88;4994599;28;20190;-81
2022/03/31 09:22:15;;;;;;;35.65;25.25;;;;;;;9.89;100.00;97355.66;4994539;28;20676;-83
2022/03/31 09:24:42;;;;;;;36.30;23.75;;;;;;;10.13;100.00;97366.00;4985624;28;20533;-80
2022/03/31 09:27:09;;;;;;;36.35;24.63;;;;;;;10.52;100.00;97360.66;4992268;28;20207;-78
2022/03/31 09:29:36;;;;;;;42.40;25.20;;;;;;;10.93;100.00;97367.50;4994262;28;20296;-79
2022/03/31 09:32:07;;;;;;;30.63;22.73;;;;;;;10.90;100.00;97362.44;4993258;28;20195;-81
2022/03/31 09:34:40;;;;;;;30.80;22.52;;;;;;;11.19;100.00;97361.47;4994204;28;20668;-81
2022/03/31 09:37:07;;;;;;;34.25;23.42;;;;;;;10.84;100.00;97366.53;4993342;28;20215;-82
2022/03/31 09:39:36;;;;;;;34.13;23.80;;;;;;;10.04;100.00;97362.34;4993426;28;20721;-82
2022/03/31 09:42:02;;;;;;;30.58;22.20;;;;;;;10.37;100.00;97365.59;4993600;28;20190;-81
2022/03/31 09:44:29;;;;;;;31.17;22.35;;;;;;;10.57;100.00;97355.69;4993825;28;20184;-80
2022/03/31 09:46:56;;;;;;;28.77;20.42;;;;;;;10.53;100.00;97359.66;4993563;28;20230;-81
2022/03/31 09:49:25;;;;;;;32.08;22.70;;;;;;;10.18;100.00;97355.69;4993406;28;20187;-81
2022/03/31 09:51:53;;;;;;;27.90;20.30;;;;;;;9.99;100.00;97362.75;4993756;28;20192;-81
2022/03/31 09:54:23;;;;;;;27.65;20.08;;;;;;;10.26;100.00;97355.81;4993594;28;20297;-81
2022/03/31 09:56:51;;;;;;;26.30;18.08;;;;;;;9.92;100.00;97350.84;4993785;28;20211;-81
2022/03/31 09:59:18;;;;;;;29.85;18.65;;;;;;;9.59;100.00;97357.44;4993673;28;20546;-81
2022/03/31 10:01:46;;;;;;;24.08;18.98;;;;;;;9.88;100.00;97353.94;4990411;28;20585;-80
2022/03/31 10:04:14;;;;;;;23.50;17.25;;;;;;;10.03;100.00;97357.94;4978182;28;20191;-80
2022/03/31 10:06:43;;;;;;;23.52;17.90;;;;;;;10.53;100.00;97349.72;4983850;28;20195;-81
2022/03/31 10:09:12;;;;;;;23.83;17.27;;;;;;;10.61;100.00;97349.03;4993190;28;20207;-81
2022/03/31 10:11:41;;;;;;;24.75;17.70;;;;;;;10.79;100.00;97352.66;4993909;28;20254;-80
2022/03/31 10:14:19;;;;;;;22.23;16.58;;;;;;;10.99;99.12;97350.78;4993415;28;20209;-80
2022/03/31 10:16:50;;;;;;;19.80;14.80;;;;;;;10.67;98.27;97352.97;4985559;28;20238;-81
2022/03/31 10:19:29;;;;;;;25.23;18.58;;;;;;;10.50;100.00;97351.88;4992524;28;20200;-81
2022/03/31 10:22:01;;;;;;;26.25;17.60;;;;;;;10.44;100.00;97342.53;4992683;28;20217;-81
2022/03/31 10:24:44;;;;;;;23.27;16.58;;;;;;;11.04;100.00;97345.78;4992746;28;20601;-81
2022/03/31 10:27:15;;;;;;;20.65;16.10;;;;;;;11.83;92.66;97327.41;4991953;28;20190;-82
2022/03/31 10:29:45;;;;;;;20.42;15.77;;;;;;;12.33;86.72;97331.44;4993013;28;20621;-82
2022/03/31 10:32:19;;;;;;;19.27;15.85;;;;;;;12.33;86.57;97329.59;4992553;28;20686;-82
2022/03/31 10:34:48;;;;;;;21.60;15.60;;;;;;;12.06;86.79;97328.66;4990429;28;20601;-83
2022/03/31 10:37:17;;;;;;;21.60;16.10;;;;;;;11.41;92.59;97338.69;4993181;28;20673;-81
2022/03/31 10:39:52;;;;;;;21.77;15.88;;;;;;;10.43;98.09;97338.16;4991940;28;20540;-80
2022/03/31 10:42:19;;;;;;;20.05;15.20;;;;;;;10.40;100.00;97346.47;4990012;28;20205;-80
2022/03/31 10:44:47;;;;;;;19.58;15.77;;;;;;;10.31;100.00;97341.97;4993181;28;20210;-81
2022/03/31 10:47:14;;;;;;;21.80;15.57;;;;;;;10.15;100.00;97338.00;4973086;28;20627;-81
2022/03/31 10:49:52;;;;;;;25.27;19.70;;;;;;;10.49;98.32;97348.34;4973240;28;20215;-82
2022/03/31 10:52:23;;;;;;;21.63;16.17;;;;;;;11.35;93.54;97336.59;4972944;28;20202;-81
2022/03/31 10:54:50;;;;;;;21.05;16.25;;;;;;;11.68;86.84;97325.19;4973140;28;20291;-81
2022/03/31 10:57:18;;;;;;;22.58;15.85;;;;;;;11.89;85.34;97327.66;4975750;28;20214;-82
2022/03/31 10:59:48;;;;;;;22.50;17.60;;;;;;;12.28;88.06;97321.13;4992652;28;20218;-83
2022/03/31 11:02:18;;;;;;;20.73;16.38;;;;;;;12.14;87.16;97322.47;4991660;28;20672;-81
2022/03/31 11:04:48;;;;;;;19.13;13.68;;;;;;;11.37;85.28;97316.56;4992852;28;20195;-83
2022/03/31 11:07:16;;;;;;;20.73;15.55;;;;;;;11.53;86.39;97318.63;4992626;28;20187;-82
2022/03/31 11:09:43;;;;;;;21.67;17.23;;;;;;;11.21;87.59;97313.69;4992733;28;20207;-83
2022/03/31 11:12:22;;;;;;;24.35;18.70;;;;;;;10.96;94.55;97325.97;4992769;28;20596;-83
2022/03/31 11:14:57;;;;;;;24.70;18.42;;;;;;;10.48;95.43;97314.34;4991898;28;20188;-83
2022/03/31 11:17:25;;;;;;;25.85;20.15;;;;;;;10.58;97.39;97314.31;4992277;28;20229;-82
2022/03/31 11:19:53;;;;;;;24.85;20.15;;;;;;;10.84;97.13;97303.78;4992512;28;20188;-83
2022/03/31 11:22:21;;;;;;;23.52;19.25;;;;;;;10.88;95.04;97304.31;4992054;28;20590;-83